Time;durP1;ratioP1;P1;durP2;ratioP2;P2;SDS_P1;SDS_P2;PMS_P1;PMS_P2;Temp;Humidity;BMP_temperature;BMP_pressure;BME280_temperature;BME280_humidity;BME280_pressure;Samples;Min_cycle;Max_cycle;Signal;HPM_P1;HPM_P2
2023/08/13 00:02:23;;;;;;;15.13;3.28;;;;;;;;;;5028790;28;20144;-69
2023/08/13 00:04:50;;;;;;;15.10;4.95;;;;;;;;;;5051753;28;20052;-69
2023/08/13 00:07:16;;;;;;;14.40;3.28;;;;;;;;;;5057375;28;20424;-69
2023/08/13 00:09:43;;;;;;;10.90;1.90;;;;;;;;;;5058740;28;20058;-69
2023/08/13 00:12:11;;;;;;;11.20;1.95;;;;;;;;;;4980211;28;20055;-68
2023/08/13 00:14:38;;;;;;;10.32;1.80;;;;;;;;;;5024213;28;20047;-69
2023/08/13 00:17:05;;;;;;;8.13;1.40;;;;;;;;;;5026522;28;20051;-69
2023/08/13 00:19:32;;;;;;;10.63;1.77;;;;;;;;;;5007393;28;20050;-69
2023/08/13 00:21:59;;;;;;;8.27;1.98;;;;;;;;;;5063397;28;20053;-69
2023/08/13 00:24:26;;;;;;;10.40;2.75;;;;;;;;;;5047307;28;20066;-69
2023/08/13 00:26:52;;;;;;;6.63;1.67;;;;;;;;;;4994010;28;20067;-69
2023/08/13 00:29:23;;;;;;;15.05;1.90;;;;;;;;;;4995686;28;20054;-69
2023/08/13 00:31:54;;;;;;;5.78;1.50;;;;;;;;;;4959702;28;20170;-69
2023/08/13 00:34:21;;;;;;;5.47;1.58;;;;;;;;;;5026603;28;20058;-69
2023/08/13 00:36:48;;;;;;;6.22;1.52;;;;;;;;;;5018991;28;20036;-69
2023/08/13 00:39:15;;;;;;;8.23;1.40;;;;;;;;;;5026610;28;20051;-69
2023/08/13 00:41:44;;;;;;;6.80;1.55;;;;;;;;;;5026374;28;20055;-70
2023/08/13 00:44:11;;;;;;;12.35;1.67;;;;;;;;;;5026481;28;20062;-69
2023/08/13 00:46:41;;;;;;;6.03;1.17;;;;;;;;;;5020856;28;20078;-70
2023/08/13 00:49:08;;;;;;;7.97;1.60;;;;;;;;;;5041968;28;20142;-69
2023/08/13 00:51:40;;;;;;;8.95;1.77;;;;;;;;;;4959422;28;20073;-69
2023/08/13 00:54:08;;;;;;;6.78;1.90;;;;;;;;;;5026246;28;20046;-69
2023/08/13 00:56:38;;;;;;;7.80;1.70;;;;;;;;;;4954216;28;20055;-68
2023/08/13 00:59:05;;;;;;;6.45;1.67;;;;;;;;;;5038745;28;20059;-68
2023/08/13 01:01:32;;;;;;;6.72;1.65;;;;;;;;;;5025688;28;20194;-69
2023/08/13 01:04:02;;;;;;;7.15;1.50;;;;;;;;;;5025631;28;20122;-69
2023/08/13 01:06:37;;;;;;;7.45;1.70;;;;;;;;;;5020874;28;20127;-69
2023/08/13 01:09:08;;;;;;;14.05;2.10;;;;;;;;;;4994734;28;20057;-69
2023/08/13 01:11:43;;;;;;;7.22;1.48;;;;;;;;;;4999267;28;20061;-69
2023/08/13 01:14:14;;;;;;;8.13;1.73;;;;;;;;;;4981339;28;20045;-69
2023/08/13 01:16:44;;;;;;;8.25;1.60;;;;;;;;;;4979711;28;20092;-71
2023/08/13 01:19:13;;;;;;;4.20;1.42;;;;;;;;;;4989636;28;20069;-69
2023/08/13 01:21:41;;;;;;;8.45;1.60;;;;;;;;;;4980186;28;20066;-69
2023/08/13 01:24:10;;;;;;;4.40;1.52;;;;;;;;;;4999582;28;20060;-68
2023/08/13 01:26:48;;;;;;;10.57;1.92;;;;;;;;;;4983522;28;20058;-68
2023/08/13 01:29:27;;;;;;;7.20;1.70;;;;;;;;;;4997661;28;20054;-68
2023/08/13 01:31:59;;;;;;;7.93;1.65;;;;;;;;;;4996327;28;20153;-68
2023/08/13 01:34:26;;;;;;;8.95;1.60;;;;;;;;;;4995438;28;20077;-69
2023/08/13 01:36:54;;;;;;;11.23;2.40;;;;;;;;;;4986139;28;20062;-69
2023/08/13 01:39:22;;;;;;;7.25;1.63;;;;;;;;;;4979194;28;20049;-68
2023/08/13 01:41:53;;;;;;;5.88;1.88;;;;;;;;;;4980108;28;20154;-69
2023/08/13 01:44:19;;;;;;;8.88;1.75;;;;;;;;;;4996689;28;20050;-68
2023/08/13 01:46:46;;;;;;;7.40;1.80;;;;;;;;;;4990716;28;20061;-69
2023/08/13 01:49:13;;;;;;;9.38;1.98;;;;;;;;;;4982210;28;20053;-70
2023/08/13 01:51:40;;;;;;;7.60;1.83;;;;;;;;;;4999110;28;20065;-68
2023/08/13 01:54:07;;;;;;;9.30;1.88;;;;;;;;;;4997414;28;20160;-68
2023/08/13 01:56:36;;;;;;;8.40;1.80;;;;;;;;;;4988313;28;20064;-68
2023/08/13 01:59:03;;;;;;;8.57;1.60;;;;;;;;;;4994989;28;20165;-69
2023/08/13 02:01:29;;;;;;;6.40;1.63;;;;;;;;;;5004739;28;20073;-69
2023/08/13 02:03:56;;;;;;;6.35;1.40;;;;;;;;;;4959262;28;20057;-69
2023/08/13 02:06:23;;;;;;;9.32;1.63;;;;;;;;;;4992325;28;20062;-68
2023/08/13 02:08:50;;;;;;;7.32;1.75;;;;;;;;;;4995852;28;20085;-69
2023/08/13 02:11:17;;;;;;;5.45;1.50;;;;;;;;;;4979523;28;20106;-69
2023/08/13 02:13:45;;;;;;;7.80;1.60;;;;;;;;;;4979679;28;20083;-69
2023/08/13 02:16:12;;;;;;;5.30;1.40;;;;;;;;;;4975623;28;20119;-69
2023/08/13 02:18:39;;;;;;;9.90;1.75;;;;;;;;;;4973266;28;20060;-69
2023/08/13 02:21:06;;;;;;;10.52;2.20;;;;;;;;;;4996567;28;20054;-70
2023/08/13 02:23:33;;;;;;;8.20;1.40;;;;;;;;;;4978856;28;20058;-69
2023/08/13 02:26:00;;;;;;;5.40;1.60;;;;;;;;;;4975859;28;20062;-69
2023/08/13 02:28:26;;;;;;;9.30;1.60;;;;;;;;;;4990248;28;20115;-68
2023/08/13 02:33:51;;;;;;;6.65;1.50;;;;;;;;;;1296057;22;20235;-68
2023/08/13 02:36:18;;;;;;;6.65;1.52;;;;;;;;;;4915307;28;20066;-69
2023/08/13 02:38:45;;;;;;;13.25;1.90;;;;;;;;;;4934685;28;20039;-68
2023/08/13 02:41:12;;;;;;;6.75;1.55;;;;;;;;;;4920752;28;20086;-68
2023/08/13 02:43:51;;;;;;;18.50;1.95;;;;;;;;;;4921008;28;20051;-69
2023/08/13 02:46:18;;;;;;;6.03;1.35;;;;;;;;;;4910601;28;20091;-68
2023/08/13 02:48:45;;;;;;;5.00;1.30;;;;;;;;;;4916902;28;20062;-69
2023/08/13 02:51:13;;;;;;;8.32;1.45;;;;;;;;;;4937562;28;20196;-69
2023/08/13 02:53:42;;;;;;;4.60;1.40;;;;;;;;;;4943207;28;20070;-69
2023/08/13 02:56:09;;;;;;;11.75;1.90;;;;;;;;;;4930515;28;20059;-68
2023/08/13 02:58:35;;;;;;;3.63;1.45;;;;;;;;;;4929971;28;20075;-68
2023/08/13 03:01:02;;;;;;;7.70;1.48;;;;;;;;;;4937118;28;20051;-68
2023/08/13 03:03:29;;;;;;;5.25;1.30;;;;;;;;;;4936474;28;20086;-69
2023/08/13 03:05:56;;;;;;;8.93;1.40;;;;;;;;;;4914979;28;20090;-68
2023/08/13 03:08:25;;;;;;;7.20;1.48;;;;;;;;;;4948824;28;20068;-69
2023/08/13 03:10:52;;;;;;;8.40;1.60;;;;;;;;;;5018570;28;20093;-68
2023/08/13 03:13:18;;;;;;;5.38;1.30;;;;;;;;;;4927671;28;20055;-68
2023/08/13 03:15:45;;;;;;;8.75;1.83;;;;;;;;;;4914491;29;20055;-69
2023/08/13 03:18:12;;;;;;;8.50;1.52;;;;;;;;;;4899883;28;20059;-68
2023/08/13 03:20:39;;;;;;;9.43;1.55;;;;;;;;;;4924673;28;20528;-69
2023/08/13 03:23:06;;;;;;;9.23;1.42;;;;;;;;;;4926459;28;20051;-69
2023/08/13 03:25:34;;;;;;;9.75;1.60;;;;;;;;;;4912294;28;20064;-69
2023/08/13 03:28:01;;;;;;;14.40;1.63;;;;;;;;;;4916956;28;20064;-69
2023/08/13 03:30:28;;;;;;;5.90;1.42;;;;;;;;;;4910976;28;20177;-69
2023/08/13 03:32:55;;;;;;;5.57;1.60;;;;;;;;;;4919872;28;20058;-68
2023/08/13 03:35:21;;;;;;;8.88;1.77;;;;;;;;;;4906665;28;20056;-69
2023/08/13 03:37:48;;;;;;;7.40;1.45;;;;;;;;;;4901760;29;20147;-68
2023/08/13 03:40:16;;;;;;;13.10;1.58;;;;;;;;;;4914775;28;20119;-70
2023/08/13 03:42:44;;;;;;;12.68;2.05;;;;;;;;;;4917211;28;21272;-69
2023/08/13 03:45:11;;;;;;;6.65;1.67;;;;;;;;;;4909414;28;20060;-69
2023/08/13 03:47:37;;;;;;;11.07;2.25;;;;;;;;;;4917568;28;20336;-69
2023/08/13 03:50:05;;;;;;;9.95;1.63;;;;;;;;;;4917019;28;20095;-69
2023/08/13 03:52:31;;;;;;;10.07;1.88;;;;;;;;;;4889478;28;20052;-69
2023/08/13 03:54:58;;;;;;;3.95;1.35;;;;;;;;;;4985618;28;20061;-68
2023/08/13 03:57:25;;;;;;;8.02;1.65;;;;;;;;;;4986101;28;20104;-69
2023/08/13 03:59:53;;;;;;;5.68;1.30;;;;;;;;;;5001637;28;20069;-68
2023/08/13 04:02:20;;;;;;;7.15;1.30;;;;;;;;;;4989312;28;20141;-69
2023/08/13 04:04:47;;;;;;;6.93;1.65;;;;;;;;;;4935176;28;20058;-68
2023/08/13 04:07:15;;;;;;;6.05;1.60;;;;;;;;;;4940908;28;20136;-68
2023/08/13 04:09:41;;;;;;;9.23;1.80;;;;;;;;;;4938452;28;20082;-68
2023/08/13 04:12:08;;;;;;;11.45;1.88;;;;;;;;;;4918557;28;20052;-68
2023/08/13 04:14:35;;;;;;;6.70;1.80;;;;;;;;;;4884682;28;20251;-68
2023/08/13 04:17:03;;;;;;;9.48;1.98;;;;;;;;;;4907259;29;20141;-69
2023/08/13 04:19:30;;;;;;;2.83;1.13;;;;;;;;;;4969386;28;20054;-68
2023/08/13 04:21:57;;;;;;;9.50;1.52;;;;;;;;;;4901540;28;20147;-68
2023/08/13 04:24:27;;;;;;;10.35;1.70;;;;;;;;;;4893929;28;20063;-69
2023/08/13 04:26:54;;;;;;;6.25;1.40;;;;;;;;;;4888245;28;20064;-68
2023/08/13 04:29:21;;;;;;;11.25;1.60;;;;;;;;;;4902842;28;20048;-68
2023/08/13 04:31:47;;;;;;;8.82;1.30;;;;;;;;;;4901894;28;20152;-68
2023/08/13 04:34:19;;;;;;;4.40;1.15;;;;;;;;;;4908216;28;20050;-68
2023/08/13 04:36:46;;;;;;;9.63;1.55;;;;;;;;;;4981182;28;20306;-67
2023/08/13 04:39:13;;;;;;;4.72;1.40;;;;;;;;;;4904394;28;20114;-68
2023/08/13 04:41:41;;;;;;;10.00;1.70;;;;;;;;;;4901462;28;20056;-68
2023/08/13 04:44:08;;;;;;;5.10;1.23;;;;;;;;;;4899007;28;20126;-68
2023/08/13 04:46:34;;;;;;;8.00;1.70;;;;;;;;;;4899051;28;20142;-67
2023/08/13 04:49:01;;;;;;;10.05;1.40;;;;;;;;;;4902978;28;20083;-67
2023/08/13 04:51:29;;;;;;;8.52;1.60;;;;;;;;;;4886710;28;20092;-68
2023/08/13 04:53:56;;;;;;;7.82;1.58;;;;;;;;;;4930193;28;20055;-68
2023/08/13 04:56:23;;;;;;;6.35;1.48;;;;;;;;;;4900765;28;20087;-69
2023/08/13 04:58:50;;;;;;;7.65;1.55;;;;;;;;;;4905100;28;20048;-68
2023/08/13 05:01:17;;;;;;;7.85;1.27;;;;;;;;;;4923076;28;20060;-69
2023/08/13 05:03:44;;;;;;;6.05;1.42;;;;;;;;;;4991059;28;20060;-69
2023/08/13 05:06:12;;;;;;;9.67;1.60;;;;;;;;;;4915639;28;20055;-68
2023/08/13 05:08:40;;;;;;;9.68;1.50;;;;;;;;;;4916401;28;20126;-68
2023/08/13 05:11:07;;;;;;;5.88;1.60;;;;;;;;;;4921147;28;20079;-69
2023/08/13 05:13:34;;;;;;;3.42;1.30;;;;;;;;;;4915120;28;20047;-69
2023/08/13 05:16:00;;;;;;;12.43;1.95;;;;;;;;;;4930804;28;20202;-68
2023/08/13 05:18:27;;;;;;;5.63;1.50;;;;;;;;;;4932779;28;20054;-68
2023/08/13 05:20:54;;;;;;;12.40;1.80;;;;;;;;;;4916297;28;20114;-69
2023/08/13 05:23:21;;;;;;;7.63;1.40;;;;;;;;;;4922201;28;20143;-69
2023/08/13 05:25:49;;;;;;;7.97;1.55;;;;;;;;;;4901682;28;20059;-69
2023/08/13 05:28:16;;;;;;;4.70;1.10;;;;;;;;;;4920652;28;20138;-69
2023/08/13 05:30:43;;;;;;;9.07;1.80;;;;;;;;;;4898989;28;20055;-70
2023/08/13 05:33:10;;;;;;;6.97;1.52;;;;;;;;;;4905274;28;20056;-68
2023/08/13 05:35:37;;;;;;;6.82;1.48;;;;;;;;;;4862216;28;20067;-69
2023/08/13 05:38:04;;;;;;;9.90;1.45;;;;;;;;;;4931443;28;20062;-69
2023/08/13 05:40:32;;;;;;;6.43;1.60;;;;;;;;;;4930849;28;20477;-69
2023/08/13 05:43:00;;;;;;;6.82;1.42;;;;;;;;;;4934097;28;20104;-68
2023/08/13 05:45:27;;;;;;;14.52;1.88;;;;;;;;;;4912218;28;20056;-69
2023/08/13 05:47:54;;;;;;;7.22;1.45;;;;;;;;;;4913063;28;20118;-67
2023/08/13 05:50:21;;;;;;;3.35;1.23;;;;;;;;;;4930887;28;20069;-69
2023/08/13 05:52:48;;;;;;;6.35;1.30;;;;;;;;;;4930960;28;20096;-69
2023/08/13 05:55:15;;;;;;;10.57;1.73;;;;;;;;;;4996307;28;20125;-68
2023/08/13 05:57:42;;;;;;;7.30;2.13;;;;;;;;;;4999626;28;20053;-69
2023/08/13 06:00:13;;;;;;;7.75;2.13;;;;;;;;;;4982084;28;20082;-68
2023/08/13 06:02:40;;;;;;;12.82;2.63;;;;;;;;;;4991519;28;20065;-68
2023/08/13 06:05:12;;;;;;;6.90;2.13;;;;;;;;;;4872240;28;20147;-69
2023/08/13 06:07:39;;;;;;;8.68;2.35;;;;;;;;;;4928214;28;20057;-68
2023/08/13 06:10:10;;;;;;;7.25;2.55;;;;;;;;;;5004335;28;20121;-69
2023/08/13 06:12:37;;;;;;;9.55;2.03;;;;;;;;;;4931469;28;20073;-69
2023/08/13 06:15:05;;;;;;;9.60;1.90;;;;;;;;;;4923554;28;20061;-69
2023/08/13 06:17:33;;;;;;;4.03;1.63;;;;;;;;;;4991363;28;20048;-69
2023/08/13 06:20:00;;;;;;;7.80;2.05;;;;;;;;;;5002706;28;20091;-68
2023/08/13 06:22:27;;;;;;;12.57;2.17;;;;;;;;;;4997196;28;20184;-69
2023/08/13 06:24:54;;;;;;;12.65;2.55;;;;;;;;;;4970609;28;20063;-70
2023/08/13 06:27:22;;;;;;;8.85;2.13;;;;;;;;;;4986359;28;20055;-70
2023/08/13 06:29:49;;;;;;;9.32;2.25;;;;;;;;;;4921232;28;20056;-70
2023/08/13 06:32:16;;;;;;;7.30;2.13;;;;;;;;;;4983816;28;20123;-70
2023/08/13 06:34:45;;;;;;;7.50;2.05;;;;;;;;;;4945617;28;20051;-70
2023/08/13 06:37:12;;;;;;;5.22;1.80;;;;;;;;;;4944134;29;20047;-70
2023/08/13 06:39:39;;;;;;;12.43;2.33;;;;;;;;;;4936445;28;20059;-70
2023/08/13 06:42:06;;;;;;;6.70;1.77;;;;;;;;;;4922355;29;20047;-69
2023/08/13 06:44:33;;;;;;;8.65;1.95;;;;;;;;;;4927033;28;20053;-70
2023/08/13 06:47:00;;;;;;;11.10;2.13;;;;;;;;;;4924007;28;20070;-69
2023/08/13 06:49:26;;;;;;;11.55;2.22;;;;;;;;;;4940044;28;20069;-70
2023/08/13 06:51:55;;;;;;;7.60;2.30;;;;;;;;;;4940787;29;20044;-70
2023/08/13 06:54:24;;;;;;;15.23;2.22;;;;;;;;;;4896079;28;20133;-69
2023/08/13 06:56:51;;;;;;;6.68;2.00;;;;;;;;;;4917548;28;20055;-68
2023/08/13 06:59:18;;;;;;;12.20;2.20;;;;;;;;;;4919126;28;20055;-69
2023/08/13 07:01:45;;;;;;;11.90;2.10;;;;;;;;;;4936740;29;20082;-69
2023/08/13 07:04:12;;;;;;;8.15;1.83;;;;;;;;;;4913656;28;20075;-69
2023/08/13 07:06:41;;;;;;;10.43;1.85;;;;;;;;;;4901202;28;20052;-68
2023/08/13 07:09:09;;;;;;;7.68;2.00;;;;;;;;;;4910566;28;20052;-68
2023/08/13 07:11:36;;;;;;;11.43;1.85;;;;;;;;;;4943714;29;20116;-68
2023/08/13 07:14:04;;;;;;;10.30;2.00;;;;;;;;;;4919961;28;20044;-68
2023/08/13 07:16:31;;;;;;;8.15;2.10;;;;;;;;;;4918929;28;20056;-68
2023/08/13 07:18:59;;;;;;;10.25;1.45;;;;;;;;;;4919896;28;20131;-68
2023/08/13 07:21:30;;;;;;;8.45;1.77;;;;;;;;;;4919992;29;20070;-69
2023/08/13 07:23:57;;;;;;;8.88;1.60;;;;;;;;;;4902539;28;20117;-72
2023/08/13 07:26:25;;;;;;;5.30;1.58;;;;;;;;;;4916863;28;20140;-69
2023/08/13 07:28:52;;;;;;;10.05;1.65;;;;;;;;;;4921806;29;20214;-69
2023/08/13 07:31:20;;;;;;;9.95;1.50;;;;;;;;;;4905854;28;20095;-68
2023/08/13 07:33:47;;;;;;;8.20;1.60;;;;;;;;;;4922280;28;20080;-69
2023/08/13 07:36:17;;;;;;;8.65;2.05;;;;;;;;;;4925375;28;20132;-69
2023/08/13 07:38:43;;;;;;;16.48;4.93;;;;;;;;;;4922088;29;20095;-71
2023/08/13 07:41:10;;;;;;;14.02;3.60;;;;;;;;;;4925662;28;20073;-71
2023/08/13 07:43:39;;;;;;;21.92;7.97;;;;;;;;;;4907164;28;20155;-71
2023/08/13 07:46:06;;;;;;;9.80;1.83;;;;;;;;;;4894192;28;20138;-69
2023/08/13 07:48:32;;;;;;;8.55;1.63;;;;;;;;;;4959241;28;20059;-69
2023/08/13 07:50:59;;;;;;;7.20;1.55;;;;;;;;;;5001470;28;20079;-69
2023/08/13 07:53:28;;;;;;;6.93;1.73;;;;;;;;;;4938586;28;20063;-69
2023/08/13 07:55:54;;;;;;;6.15;1.75;;;;;;;;;;4984005;28;20052;-69
2023/08/13 07:58:21;;;;;;;7.10;1.52;;;;;;;;;;4946788;28;20056;-69
2023/08/13 08:00:50;;;;;;;7.47;1.70;;;;;;;;;;4943052;28;20055;-70
2023/08/13 08:03:16;;;;;;;;;;;;;;;;;;4931211;28;20052;-70
2023/08/13 08:05:47;;;;;;;8.30;1.60;;;;;;;;;;4929946;28;19934;-71
2023/08/13 08:08:14;;;;;;;7.97;1.80;;;;;;;;;;4966949;28;20115;-69
2023/08/13 08:10:41;;;;;;;8.40;1.60;;;;;;;;;;4932389;28;20059;-69
2023/08/13 08:13:08;;;;;;;8.77;1.73;;;;;;;;;;4971723;28;20050;-69
2023/08/13 08:15:34;;;;;;;7.78;1.50;;;;;;;;;;5015829;28;20057;-73
2023/08/13 08:18:03;;;;;;;5.38;1.38;;;;;;;;;;4935286;28;20048;-71
2023/08/13 08:20:30;;;;;;;4.82;1.30;;;;;;;;;;5006029;28;20049;-71
2023/08/13 08:22:57;;;;;;;9.35;2.15;;;;;;;;;;4992727;28;20066;-71
2023/08/13 08:25:27;;;;;;;8.88;2.05;;;;;;;;;;4946453;28;20061;-71
2023/08/13 08:27:57;;;;;;;10.63;2.20;;;;;;;;;;4986189;28;20060;-72
2023/08/13 08:30:24;;;;;;;12.23;4.05;;;;;;;;;;4986902;28;20049;-70
2023/08/13 08:32:51;;;;;;;102.80;52.28;;;;;;;;;;4992544;28;20056;-73
2023/08/13 08:35:33;;;;;;;;;;;;;;;;;;;;;
2023/08/13 08:38:04;;;;;;;5.57;1.95;;;;;;;;;;4904347;28;20055;-70
2023/08/13 08:40:31;;;;;;;8.98;1.80;;;;;;;;;;4914087;28;20056;-70
2023/08/13 08:42:58;;;;;;;10.27;1.38;;;;;;;;;;4926155;29;20052;-70
2023/08/13 08:45:27;;;;;;;5.82;1.30;;;;;;;;;;4899687;28;20052;-71
2023/08/13 08:47:59;;;;;;;10.07;2.38;;;;;;;;;;4920385;28;20138;-71
2023/08/13 08:50:32;;;;;;;18.00;5.32;;;;;;;;;;4931146;28;20094;-69
2023/08/13 08:52:59;;;;;;;12.80;2.97;;;;;;;;;;4935422;28;20058;-70
2023/08/13 08:55:26;;;;;;;5.40;1.70;;;;;;;;;;4908887;28;20130;-71
2023/08/13 08:57:54;;;;;;;5.82;1.52;;;;;;;;;;4920999;28;20062;-70
2023/08/13 09:00:23;;;;;;;8.23;1.60;;;;;;;;;;4921027;28;20143;-75
2023/08/13 09:02:50;;;;;;;9.00;1.95;;;;;;;;;;4927938;28;20061;-71
2023/08/13 09:05:21;;;;;;;8.80;1.45;;;;;;;;;;4899538;28;20111;-71
2023/08/13 09:07:50;;;;;;;10.45;1.63;;;;;;;;;;4922909;28;20062;-70
2023/08/13 09:10:17;;;;;;;13.98;1.92;;;;;;;;;;4921408;29;20142;-71
2023/08/13 09:12:44;;;;;;;8.25;1.23;;;;;;;;;;4932781;28;20068;-70
2023/08/13 09:15:13;;;;;;;8.30;2.17;;;;;;;;;;4904251;28;20138;-70
2023/08/13 09:17:40;;;;;;;11.15;1.80;;;;;;;;;;4934214;28;20052;-70
2023/08/13 09:20:19;;;;;;;11.55;3.92;;;;;;;;;;4921098;28;20097;-72
2023/08/13 09:22:49;;;;;;;8.85;1.88;;;;;;;;;;4922402;28;20133;-72
2023/08/13 09:25:33;;;;;;;4.70;1.65;;;;;;;;;;4906524;28;20129;-71
2023/08/13 09:28:04;;;;;;;7.07;1.48;;;;;;;;;;4904552;28;20151;-70
2023/08/13 09:30:32;;;;;;;10.63;1.63;;;;;;;;;;4933271;28;20114;-73
2023/08/13 09:33:00;;;;;;;8.70;1.52;;;;;;;;;;4905161;28;20055;-71
2023/08/13 09:35:34;;;;;;;6.80;1.70;;;;;;;;;;4874496;28;20168;-75
2023/08/13 09:38:02;;;;;;;12.35;1.67;;;;;;;;;;4866198;29;20062;-67
2023/08/13 09:40:31;;;;;;;14.50;1.80;;;;;;;;;;4857791;29;20052;-79
2023/08/13 09:43:00;;;;;;;10.73;2.05;;;;;;;;;;4889137;28;20052;-78
2023/08/13 09:45:29;;;;;;;9.38;1.50;;;;;;;;;;4911545;28;20047;-71
2023/08/13 09:47:56;;;;;;;7.72;1.40;;;;;;;;;;4921817;28;20041;-72
2023/08/13 09:50:27;;;;;;;7.95;1.63;;;;;;;;;;4931401;28;20056;-73
2023/08/13 09:52:55;;;;;;;10.88;1.70;;;;;;;;;;4933132;28;20054;-72
2023/08/13 09:55:27;;;;;;;9.25;1.40;;;;;;;;;;4913024;28;20093;-72
2023/08/13 09:57:58;;;;;;;6.45;1.33;;;;;;;;;;4925366;28;20142;-72
2023/08/13 10:00:26;;;;;;;9.25;1.50;;;;;;;;;;4897388;28;20055;-70
2023/08/13 10:02:54;;;;;;;;;;;;;;;;;;4904198;29;20174;-68
2023/08/13 10:05:21;;;;;;;7.45;1.40;;;;;;;;;;4914776;28;20017;-71
2023/08/13 10:07:49;;;;;;;7.72;1.40;;;;;;;;;;4920001;28;20066;-71
2023/08/13 10:10:16;;;;;;;9.70;1.38;;;;;;;;;;5000759;28;20056;-70
2023/08/13 10:12:43;;;;;;;8.25;1.98;;;;;;;;;;4901289;28;20052;-71
2023/08/13 10:15:15;;;;;;;7.95;1.98;;;;;;;;;;4885742;28;20091;-71
2023/08/13 10:17:47;;;;;;;7.03;1.30;;;;;;;;;;4893612;28;20135;-70
2023/08/13 10:20:17;;;;;;;9.68;2.15;;;;;;;;;;4901180;28;20064;-71
2023/08/13 10:22:46;;;;;;;9.68;2.85;;;;;;;;;;4897257;28;20048;-72
2023/08/13 10:25:26;;;;;;;;;;;;;;;;;;4886902;28;20064;-72
2023/08/13 10:27:54;;;;;;;14.10;2.70;;;;;;;;;;4902051;28;19986;-73
2023/08/13 10:30:23;;;;;;;13.80;2.35;;;;;;;;;;4895406;28;20056;-69
2023/08/13 10:32:50;;;;;;;;;;;;;;;;;;4906587;28;20056;-71
2023/08/13 10:35:25;;;;;;;6.90;1.38;;;;;;;;;;4876427;28;19930;-75
2023/08/13 10:37:55;;;;;;;7.32;1.58;;;;;;;;;;4905070;28;20059;-76
2023/08/13 10:40:22;;;;;;;8.50;1.27;;;;;;;;;;4902233;28;20048;-73
2023/08/13 10:42:53;;;;;;;7.75;1.60;;;;;;;;;;4914397;28;20048;-69
2023/08/13 10:45:21;;;;;;;9.32;1.30;;;;;;;;;;4914624;28;20087;-71
2023/08/13 10:47:53;;;;;;;;;;;;;;;;;;4934388;28;20052;-68
2023/08/13 10:50:34;;;;;;;12.00;1.85;;;;;;;;;;4898063;28;19966;-78
2023/08/13 10:53:07;;;;;;;9.20;1.48;;;;;;;;;;4899253;29;20052;-79
2023/08/13 10:55:39;;;;;;;5.68;1.23;;;;;;;;;;4898971;28;20053;-76
2023/08/13 10:58:07;;;;;;;7.47;2.03;;;;;;;;;;4959425;28;20085;-78
2023/08/13 11:00:43;;;;;;;8.07;1.57;;;;;;;;;;4903116;29;20063;-74
2023/08/13 11:03:23;;;;;;;5.78;1.33;;;;;;;;;;4906508;28;20079;-76
2023/08/13 11:05:52;;;;;;;9.00;1.50;;;;;;;;;;4892449;28;20073;-72
2023/08/13 11:08:21;;;;;;;11.07;1.35;;;;;;;;;;4913109;28;20059;-73
2023/08/13 11:10:49;;;;;;;9.55;1.40;;;;;;;;;;4908593;28;20079;-77
2023/08/13 11:13:17;;;;;;;6.68;1.35;;;;;;;;;;4904526;28;20063;-75
2023/08/13 11:15:55;;;;;;;5.05;1.30;;;;;;;;;;4893789;28;20064;-79
2023/08/13 11:18:23;;;;;;;11.93;1.60;;;;;;;;;;4901398;28;20059;-72
2023/08/13 11:20:52;;;;;;;8.18;1.73;;;;;;;;;;4919344;28;20067;-73
2023/08/13 11:23:19;;;;;;;12.23;1.85;;;;;;;;;;4919076;28;20060;-74
2023/08/13 11:25:48;;;;;;;19.38;8.10;;;;;;;;;;4891161;28;20072;-70
2023/08/13 11:28:22;;;;;;;11.13;1.95;;;;;;;;;;4897442;29;20086;-74
2023/08/13 11:30:51;;;;;;;8.15;1.60;;;;;;;;;;4923437;28;20098;-73
2023/08/13 11:33:19;;;;;;;6.57;1.75;;;;;;;;;;4920864;28;20064;-77
2023/08/13 11:35:48;;;;;;;9.80;3.15;;;;;;;;;;4914608;28;20060;-71
2023/08/13 11:38:16;;;;;;;8.75;2.05;;;;;;;;;;4919020;28;20071;-72
2023/08/13 11:40:43;;;;;;;7.85;1.60;;;;;;;;;;4924240;28;20111;-72
2023/08/13 11:43:14;;;;;;;8.80;1.90;;;;;;;;;;4920749;29;20055;-75
2023/08/13 11:45:41;;;;;;;40.67;5.05;;;;;;;;;;4904053;28;20059;-75
2023/08/13 11:48:11;;;;;;;11.07;2.58;;;;;;;;;;4905029;28;20109;-77
2023/08/13 11:50:39;;;;;;;12.30;1.80;;;;;;;;;;4905114;28;20063;-77
2023/08/13 11:53:13;;;;;;;12.02;2.55;;;;;;;;;;4903866;28;20056;-75
2023/08/13 11:55:42;;;;;;;7.72;1.50;;;;;;;;;;4891685;28;20056;-74
2023/08/13 11:58:09;;;;;;;10.57;1.50;;;;;;;;;;4903671;28;20138;-74
2023/08/13 12:00:37;;;;;;;6.93;1.70;;;;;;;;;;4894187;28;20194;-71
2023/08/13 12:03:05;;;;;;;8.77;1.50;;;;;;;;;;4907422;28;20175;-72
2023/08/13 12:05:33;;;;;;;12.02;2.08;;;;;;;;;;4917281;28;20051;-70
2023/08/13 12:08:02;;;;;;;;;;;;;;;;;;4905695;28;20115;-75
2023/08/13 12:10:40;;;;;;;8.65;1.65;;;;;;;;;;4911944;28;19926;-72
2023/08/13 12:13:07;;;;;;;8.32;1.38;;;;;;;;;;4940048;28;20167;-71
2023/08/13 12:15:35;;;;;;;7.05;1.73;;;;;;;;;;4899615;28;20051;-72
2023/08/13 12:18:02;;;;;;;5.90;1.67;;;;;;;;;;4911053;29;20055;-72
2023/08/13 12:20:29;;;;;;;7.38;1.35;;;;;;;;;;4918241;28;20056;-73
2023/08/13 12:22:58;;;;;;;10.40;1.48;;;;;;;;;;4923537;29;20051;-75
2023/08/13 12:25:26;;;;;;;5.15;1.20;;;;;;;;;;4913957;28;20129;-74
2023/08/13 12:27:55;;;;;;;8.60;1.93;;;;;;;;;;4921701;28;20058;-75
2023/08/13 12:30:25;;;;;;;7.25;2.80;;;;;;;;;;4902296;28;20087;-74
2023/08/13 12:32:52;;;;;;;9.02;2.00;;;;;;;;;;4921887;28;20127;-71
2023/08/13 12:35:22;;;;;;;8.45;1.67;;;;;;;;;;4889530;28;20060;-72
2023/08/13 12:37:49;;;;;;;12.48;1.67;;;;;;;;;;4895893;28;20047;-71
2023/08/13 12:40:17;;;;;;;11.88;3.33;;;;;;;;;;4919143;28;20067;-71
2023/08/13 12:42:44;;;;;;;17.52;5.57;;;;;;;;;;4922759;29;20059;-71
2023/08/13 12:45:13;;;;;;;14.32;5.97;;;;;;;;;;4886713;28;20129;-76
2023/08/13 12:47:40;;;;;;;11.65;3.10;;;;;;;;;;4911716;28;20063;-74
2023/08/13 12:50:13;;;;;;;17.25;2.55;;;;;;;;;;4936998;28;20109;-75
2023/08/13 12:52:40;;;;;;;9.55;2.05;;;;;;;;;;4927156;28;20051;-75
2023/08/13 12:55:10;;;;;;;10.80;2.45;;;;;;;;;;4889400;28;20060;-77
2023/08/13 12:57:37;;;;;;;9.15;2.25;;;;;;;;;;4916572;28;20060;-75
2023/08/13 13:00:13;;;;;;;4.07;1.45;;;;;;;;;;4925074;28;20056;-73
2023/08/13 13:02:44;;;;;;;;;;;;;;;;;;4927214;29;20055;-73
2023/08/13 13:05:11;;;;;;;6.25;1.73;;;;;;;;;;4920868;28;20001;-70
2023/08/13 13:07:38;;;;;;;7.82;1.55;;;;;;;;;;4898908;28;20056;-72
2023/08/13 13:10:05;;;;;;;27.30;3.03;;;;;;;;;;4923481;28;20059;-71
2023/08/13 13:12:32;;;;;;;9.00;1.67;;;;;;;;;;4915362;28;20048;-72
2023/08/13 13:14:59;;;;;;;9.52;2.72;;;;;;;;;;4917750;28;20059;-73
2023/08/13 13:17:28;;;;;;;11.80;3.15;;;;;;;;;;4904530;28;20060;-72
2023/08/13 13:19:55;;;;;;;27.63;12.65;;;;;;;;;;4928461;28;20082;-73
2023/08/13 13:22:23;;;;;;;15.03;4.50;;;;;;;;;;4916418;28;20078;-72
2023/08/13 13:24:56;;;;;;;10.13;1.85;;;;;;;;;;4899934;28;20389;-74
2023/08/13 13:27:23;;;;;;;11.25;1.27;;;;;;;;;;4937503;28;20074;-74
2023/08/13 13:30:38;;;;;;;6.55;1.60;;;;;;;;;;4917907;28;20062;-73
2023/08/13 13:33:06;;;;;;;7.35;1.85;;;;;;;;;;4931611;28;20087;-75
2023/08/13 13:35:39;;;;;;;8.50;1.45;;;;;;;;;;4960048;28;20065;-72
2023/08/13 13:38:10;;;;;;;4.78;1.30;;;;;;;;;;4928361;29;20063;-74
2023/08/13 13:40:39;;;;;;;15.63;1.92;;;;;;;;;;4907441;28;20086;-73
2023/08/13 13:43:12;;;;;;;6.13;1.40;;;;;;;;;;4918664;29;20063;-71
2023/08/13 13:45:39;;;;;;;12.65;2.53;;;;;;;;;;4880535;28;20064;-73
2023/08/13 13:48:08;;;;;;;24.42;10.07;;;;;;;;;;4888335;28;20066;-72
2023/08/13 13:50:41;;;;;;;19.35;8.52;;;;;;;;;;4898025;28;20064;-73
2023/08/13 13:53:19;;;;;;;7.88;2.15;;;;;;;;;;4917759;28;20087;-72
2023/08/13 13:55:46;;;;;;;6.78;1.48;;;;;;;;;;4896207;28;20046;-73
2023/08/13 13:58:22;;;;;;;9.60;2.08;;;;;;;;;;4916455;28;20110;-72
2023/08/13 14:00:50;;;;;;;10.20;3.65;;;;;;;;;;4945261;28;20063;-78
2023/08/13 14:03:19;;;;;;;7.82;2.72;;;;;;;;;;4919012;28;20051;-74
2023/08/13 14:05:51;;;;;;;8.88;1.65;;;;;;;;;;4900957;28;20509;-72
2023/08/13 14:08:19;;;;;;;7.28;1.70;;;;;;;;;;4916862;28;20154;-72
2023/08/13 14:10:49;;;;;;;9.57;1.67;;;;;;;;;;4933700;28;20153;-72
2023/08/13 14:13:17;;;;;;;6.93;1.70;;;;;;;;;;4917358;28;20105;-73
2023/08/13 14:15:46;;;;;;;10.73;1.55;;;;;;;;;;4884180;28;20122;-72
2023/08/13 14:18:19;;;;;;;7.03;1.65;;;;;;;;;;4893873;29;20075;-73
2023/08/13 14:20:51;;;;;;;4.93;1.58;;;;;;;;;;4890104;29;20063;-72
2023/08/13 14:23:23;;;;;;;11.32;2.10;;;;;;;;;;4882852;29;20051;-71
2023/08/13 14:25:51;;;;;;;6.97;1.77;;;;;;;;;;4866889;29;20067;-72
2023/08/13 14:28:20;;;;;;;5.38;1.40;;;;;;;;;;4896201;29;20139;-74
2023/08/13 14:30:48;;;;;;;4.93;1.48;;;;;;;;;;4882926;29;20056;-72
2023/08/13 14:33:15;;;;;;;7.40;1.50;;;;;;;;;;4922205;28;20062;-73
2023/08/13 14:35:45;;;;;;;9.20;1.50;;;;;;;;;;4895014;28;21422;-73
2023/08/13 14:38:16;;;;;;;6.70;1.48;;;;;;;;;;4881970;28;20135;-73
2023/08/13 14:40:43;;;;;;;11.05;2.35;;;;;;;;;;4904633;28;20063;-73
2023/08/13 14:43:13;;;;;;;6.28;1.42;;;;;;;;;;4894169;28;20098;-72
2023/08/13 14:45:42;;;;;;;4.53;1.33;;;;;;;;;;4865492;28;20066;-71
2023/08/13 14:50:37;;;;;;;7.50;1.33;;;;;;;;;;4878348;28;20051;-71
2023/08/13 14:53:04;;;;;;;6.97;1.30;;;;;;;;;;4903726;28;20048;-73
2023/08/13 14:55:33;;;;;;;5.57;1.38;;;;;;;;;;4879206;28;20056;-75
2023/08/13 15:08:33;;;;;;;22.15;9.48;;;;;;;;;;4846852;29;20180;-74